Time;durP1;ratioP1;P1;durP2;ratioP2;P2;SDS_P1;SDS_P2;PMS_P1;PMS_P2;Temp;Humidity;BMP_temperature;BMP_pressure;BME280_temperature;BME280_humidity;BME280_pressure;Samples;Min_cycle;Max_cycle;Signal;HPM_P1;HPM_P2
2023/02/22 05:12:14;;;;;;;138.07;10.37;;;5.80;99.90;;;;;;5650713;23;20020;-81
2023/02/22 05:14:40;;;;;;;117.30;11.63;;;5.70;99.90;;;;;;4945003;28;20305;-81
2023/02/22 05:17:06;;;;;;;99.18;9.45;;;5.70;99.90;;;;;;4907887;28;20499;-81
2023/02/22 05:19:32;;;;;;;16.52;7.15;;;5.60;99.90;;;;;;4906099;29;20046;-81
2023/02/22 05:21:57;;;;;;;27.98;7.63;;;5.60;99.90;;;;;;4920433;28;20034;-81
2023/02/22 05:24:23;;;;;;;10.35;6.65;;;5.60;99.90;;;;;;4891592;28;20035;-80
2023/02/22 05:26:50;;;;;;;35.83;8.63;;;5.60;99.90;;;;;;4930969;28;20038;-81
2023/02/22 05:29:16;;;;;;;111.45;9.70;;;5.60;99.90;;;;;;4917822;28;20125;-81
2023/02/22 05:31:42;;;;;;;247.77;14.05;;;5.50;99.90;;;;;;4891194;28;20456;-80
2023/02/22 05:34:08;;;;;;;19.92;7.25;;;5.50;99.90;;;;;;4902280;28;20098;-81
2023/02/22 05:36:34;;;;;;;11.60;6.70;;;5.50;99.90;;;;;;4886620;28;20032;-80
2023/02/22 05:39:00;;;;;;;160.38;12.18;;;5.50;99.90;;;;;;4896631;28;20166;-80
2023/02/22 05:41:27;;;;;;;110.97;9.55;;;5.40;99.90;;;;;;4846967;28;20041;-80
2023/02/22 05:43:53;;;;;;;14.60;7.20;;;5.40;99.90;;;;;;4888432;28;20415;-80
2023/02/22 05:46:18;;;;;;;125.55;10.10;;;5.40;99.90;;;;;;4856735;28;20047;-81
2023/02/22 05:48:44;;;;;;;9.93;6.28;;;5.40;99.90;;;;;;4897054;28;20039;-79
2023/02/22 05:51:09;;;;;;;34.05;7.47;;;5.40;99.90;;;;;;4904118;28;20039;-80
2023/02/22 05:53:35;;;;;;;8.70;5.22;;;5.40;99.90;;;;;;4911658;28;20035;-80
2023/02/22 05:56:01;;;;;;;81.15;7.93;;;5.40;99.90;;;;;;4934370;28;20110;-79
2023/02/22 05:58:27;;;;;;;58.13;6.97;;;5.30;99.90;;;;;;4921889;28;20121;-80
2023/02/22 06:00:53;;;;;;;132.00;10.95;;;5.20;99.90;;;;;;4890606;28;20031;-79
2023/02/22 06:03:19;;;;;;;74.35;7.82;;;5.20;99.90;;;;;;4921726;28;20667;-80
2023/02/22 06:05:44;;;;;;;16.17;5.65;;;5.20;99.90;;;;;;4921436;28;20039;-81
2023/02/22 06:08:10;;;;;;;23.27;6.07;;;5.10;99.90;;;;;;4925434;28;20495;-81
2023/02/22 06:10:36;;;;;;;26.35;5.95;;;5.10;99.90;;;;;;4939602;28;20423;-79
2023/02/22 06:13:02;;;;;;;209.50;9.65;;;5.00;99.90;;;;;;4918500;28;20587;-79
2023/02/22 06:15:27;;;;;;;257.15;12.82;;;4.90;99.90;;;;;;4932372;28;20490;-79
2023/02/22 06:17:56;;;;;;;189.30;10.50;;;4.90;99.90;;;;;;4920545;28;20065;-79
2023/02/22 06:20:23;;;;;;;209.95;10.85;;;4.80;99.90;;;;;;4938694;28;20034;-79
2023/02/22 06:22:49;;;;;;;292.65;12.90;;;4.80;99.90;;;;;;4917928;28;20165;-79
2023/02/22 06:25:16;;;;;;;115.05;7.65;;;4.70;99.90;;;;;;4941808;28;20038;-79
2023/02/22 06:27:42;;;;;;;7.35;4.03;;;4.70;99.90;;;;;;4923029;28;20047;-79
2023/02/22 06:30:09;;;;;;;101.57;7.82;;;4.70;99.90;;;;;;4942190;28;20418;-78
2023/02/22 06:32:34;;;;;;;178.00;9.90;;;4.60;99.90;;;;;;4905312;28;20446;-80
2023/02/22 06:35:00;;;;;;;177.63;8.40;;;4.60;99.90;;;;;;4904800;28;20071;-79
2023/02/22 06:37:26;;;;;;;95.80;6.57;;;4.50;99.90;;;;;;4903538;28;20101;-79
2023/02/22 06:39:53;;;;;;;92.00;6.68;;;4.50;99.90;;;;;;4934998;28;20693;-79
2023/02/22 06:42:18;;;;;;;79.18;6.97;;;4.50;99.90;;;;;;4909106;28;20483;-79
2023/02/22 06:44:44;;;;;;;100.40;6.95;;;4.40;99.90;;;;;;4922722;28;20038;-79
2023/02/22 06:47:12;;;;;;;80.90;6.10;;;4.40;99.90;;;;;;4933527;28;20081;-79
2023/02/22 06:49:38;;;;;;;127.93;7.05;;;4.30;99.90;;;;;;4918748;28;20483;-79
2023/02/22 06:52:05;;;;;;;173.25;8.02;;;4.40;99.90;;;;;;4918196;28;20023;-79
2023/02/22 06:54:31;;;;;;;118.63;6.72;;;4.30;99.90;;;;;;4933435;28;20075;-79
2023/02/22 06:56:56;;;;;;;166.30;8.10;;;4.30;99.90;;;;;;4904630;28;20113;-79
2023/02/22 06:59:22;;;;;;;160.10;8.32;;;4.20;99.90;;;;;;4922309;28;20035;-79
2023/02/22 07:01:48;;;;;;;45.38;4.55;;;4.20;99.90;;;;;;4935601;28;20745;-78
2023/02/22 07:04:14;;;;;;;113.63;7.40;;;4.20;99.90;;;;;;4930500;28;20034;-78
2023/02/22 07:06:49;;;;;;;83.88;6.45;;;4.10;99.90;;;;;;4923792;28;20082;-78
2023/02/22 07:09:16;;;;;;;110.95;7.13;;;4.10;99.90;;;;;;4931677;28;20125;-79
2023/02/22 07:11:41;;;;;;;147.70;8.55;;;4.10;99.90;;;;;;4921199;28;20036;-78
2023/02/22 07:14:09;;;;;;;132.52;8.52;;;4.10;99.90;;;;;;4916560;28;20561;-78
2023/02/22 07:16:34;;;;;;;78.93;6.18;;;4.00;99.90;;;;;;4913629;28;20038;-78
2023/02/22 07:19:00;;;;;;;5.43;4.47;;;4.00;99.90;;;;;;4904132;28;20054;-78
2023/02/22 07:21:29;;;;;;;123.30;8.32;;;4.10;99.90;;;;;;4920909;28;20197;-78
2023/02/22 07:24:00;;;;;;;78.47;6.18;;;4.10;99.90;;;;;;4926113;28;20047;-78
2023/02/22 07:26:27;;;;;;;24.30;4.60;;;4.10;99.90;;;;;;4923402;28;20038;-78
2023/02/22 07:28:52;;;;;;;183.77;8.93;;;4.10;99.90;;;;;;4907528;28;20095;-79
2023/02/22 07:31:18;;;;;;;242.07;11.02;;;4.10;99.90;;;;;;4922153;28;20031;-78
2023/02/22 07:33:48;;;;;;;121.82;7.25;;;4.10;99.90;;;;;;4917472;28;20123;-78
2023/02/22 07:36:16;;;;;;;23.83;4.60;;;4.10;99.90;;;;;;4898852;28;20505;-78
2023/02/22 07:38:43;;;;;;;53.83;5.68;;;4.10;99.90;;;;;;4943899;28;20498;-78
2023/02/22 07:41:09;;;;;;;10.40;4.05;;;4.20;99.90;;;;;;4945930;28;20117;-78
2023/02/22 07:43:34;;;;;;;50.10;6.63;;;4.20;99.90;;;;;;4906352;28;20095;-78
2023/02/22 07:46:02;;;;;;;19.70;5.95;;;4.20;99.90;;;;;;4908610;28;20550;-78
2023/02/22 07:48:29;;;;;;;20.65;6.63;;;4.20;99.90;;;;;;4924810;28;20491;-78
2023/02/22 07:50:54;;;;;;;17.58;6.93;;;4.20;99.90;;;;;;4932051;28;20042;-78
2023/02/22 07:53:22;;;;;;;13.18;6.15;;;4.20;99.90;;;;;;4903244;28;20402;-78
2023/02/22 07:55:49;;;;;;;20.25;7.05;;;4.30;99.90;;;;;;4917493;28;20038;-79
2023/02/22 07:58:15;;;;;;;28.15;6.93;;;4.30;99.90;;;;;;4923202;28;20054;-78
2023/02/22 08:00:42;;;;;;;24.67;6.45;;;4.40;99.90;;;;;;4941403;28;20030;-78
2023/02/22 08:03:10;;;;;;;16.48;7.03;;;4.40;99.90;;;;;;4933042;28;20509;-78
2023/02/22 08:05:36;;;;;;;17.15;6.88;;;4.50;99.90;;;;;;4928230;28;20117;-79
2023/02/22 08:08:03;;;;;;;11.73;6.43;;;4.50;99.90;;;;;;4927545;28;20518;-79
2023/02/22 08:10:29;;;;;;;10.02;6.90;;;4.60;99.90;;;;;;4901479;28;20039;-79
2023/02/22 08:12:55;;;;;;;12.13;7.53;;;4.60;99.90;;;;;;4903659;28;20521;-79
2023/02/22 08:15:23;;;;;;;10.27;6.25;;;4.70;99.90;;;;;;4899858;28;20166;-79
2023/02/22 08:17:48;;;;;;;12.95;7.00;;;4.70;99.90;;;;;;4925810;28;20038;-79
2023/02/22 08:20:14;;;;;;;16.75;9.35;;;4.70;99.90;;;;;;4919161;28;20039;-79
2023/02/22 08:22:42;;;;;;;13.73;7.82;;;4.80;99.90;;;;;;4929405;28;20134;-79
2023/02/22 08:25:09;;;;;;;16.67;9.38;;;4.80;99.90;;;;;;4910242;28;20044;-79
2023/02/22 08:27:36;;;;;;;17.63;9.20;;;4.90;99.90;;;;;;4937845;28;20037;-79
2023/02/22 08:30:03;;;;;;;17.73;8.90;;;5.00;99.90;;;;;;4907137;28;20038;-80
2023/02/22 08:32:28;;;;;;;19.85;9.52;;;5.10;99.90;;;;;;4920304;28;20028;-79
2023/02/22 08:34:54;;;;;;;17.60;9.82;;;5.20;99.90;;;;;;4919247;28;20502;-79
2023/02/22 08:37:20;;;;;;;18.67;9.82;;;5.30;99.90;;;;;;4910830;28;20027;-79
2023/02/22 08:39:46;;;;;;;13.82;8.18;;;5.30;99.90;;;;;;4922699;28;20041;-80
2023/02/22 08:42:11;;;;;;;9.68;6.22;;;5.40;99.90;;;;;;4924421;28;20163;-79
2023/02/22 08:44:38;;;;;;;17.15;9.18;;;5.60;99.90;;;;;;4932945;28;20059;-79
2023/02/22 08:47:05;;;;;;;16.45;8.77;;;5.70;99.90;;;;;;4905862;28;20034;-79
2023/02/22 08:49:31;;;;;;;13.27;8.55;;;5.70;99.90;;;;;;4907189;28;20066;-79
2023/02/22 08:51:57;;;;;;;19.33;9.88;;;5.80;99.90;;;;;;4902317;28;20503;-79
2023/02/22 08:54:23;;;;;;;17.40;10.75;;;5.80;99.90;;;;;;4907448;28;20041;-79
2023/02/22 08:56:48;;;;;;;18.42;11.02;;;6.00;99.90;;;;;;4929813;28;20031;-79
2023/02/22 08:59:15;;;;;;;18.58;10.30;;;6.10;99.90;;;;;;4911347;28;20130;-79
2023/02/22 09:01:41;;;;;;;19.23;11.50;;;6.20;99.90;;;;;;4928882;28;20465;-80
2023/02/22 09:04:07;;;;;;;19.92;10.93;;;6.50;99.90;;;;;;4918817;28;20038;-80
2023/02/22 09:06:33;;;;;;;13.85;7.60;;;6.40;99.90;;;;;;4922377;28;20034;-81
2023/02/22 09:08:59;;;;;;;16.45;8.60;;;6.60;99.90;;;;;;4922388;28;20093;-79
2023/02/22 09:11:24;;;;;;;13.13;7.65;;;6.80;99.90;;;;;;4923011;28;20045;-80
2023/02/22 09:13:52;;;;;;;15.35;8.48;;;6.90;99.90;;;;;;4911124;28;20129;-79
2023/02/22 09:16:18;;;;;;;20.95;11.20;;;7.00;99.90;;;;;;4938809;28;20107;-79
2023/02/22 09:18:44;;;;;;;21.70;13.60;;;7.00;99.90;;;;;;4915522;28;20447;-80
2023/02/22 09:21:11;;;;;;;24.27;13.77;;;7.20;99.90;;;;;;4912660;28;20031;-79
2023/02/22 09:23:36;;;;;;;21.67;11.02;;;7.30;99.90;;;;;;4924997;28;20058;-79
2023/02/22 09:26:02;;;;;;;22.77;13.13;;;7.40;99.90;;;;;;4931402;28;20445;-79
2023/02/22 09:28:27;;;;;;;19.65;11.07;;;7.50;99.90;;;;;;4928416;28;20410;-79
2023/02/22 09:30:53;;;;;;;15.68;8.23;;;7.50;99.90;;;;;;4925282;28;20061;-81
2023/02/22 09:33:19;;;;;;;11.65;6.25;;;7.70;99.90;;;;;;4921123;28;20119;-80
2023/02/22 09:35:45;;;;;;;27.23;15.35;;;7.90;99.90;;;;;;4926654;28;20056;-80
2023/02/22 09:38:12;;;;;;;25.05;14.50;;;8.00;99.90;;;;;;4918731;28;20086;-80
2023/02/22 09:41:11;;;;;;;22.88;14.02;;;8.10;99.90;;;;;;4919963;28;20038;-81
2023/02/22 09:43:50;;;;;;;23.92;13.95;;;8.10;99.90;;;;;;4924175;28;20054;-80
2023/02/22 09:46:27;;;;;;;25.25;14.07;;;8.40;99.90;;;;;;4914922;28;20042;-80
2023/02/22 09:48:58;;;;;;;18.88;11.82;;;8.30;99.90;;;;;;4920361;28;20031;-80
2023/02/22 09:51:26;;;;;;;22.17;13.98;;;8.60;99.90;;;;;;4962155;28;20035;-80
2023/02/22 09:53:55;;;;;;;16.20;9.15;;;8.50;99.90;;;;;;4932646;28;20554;-81
2023/02/22 09:56:21;;;;;;;27.10;14.13;;;8.60;99.90;;;;;;4938378;28;20364;-80
2023/02/22 09:58:48;;;;;;;11.55;7.57;;;8.70;99.90;;;;;;4928884;28;20054;-80
2023/02/22 10:01:55;;;;;;;22.30;13.18;;;8.80;99.90;;;;;;4933702;28;20112;-81
2023/02/22 10:04:41;;;;;;;11.15;6.65;;;9.00;99.90;;;;;;4901977;28;20062;-81
2023/02/22 10:07:16;;;;;;;17.50;11.45;;;9.30;99.90;;;;;;4942179;28;20031;-80
2023/02/22 10:09:42;;;;;;;17.83;13.30;;;9.40;99.90;;;;;;4955587;28;20035;-80
2023/02/22 10:12:28;;;;;;;24.50;12.27;;;9.50;99.90;;;;;;4930167;28;20494;-80
2023/02/22 10:15:18;;;;;;;20.05;13.30;;;9.60;99.90;;;;;;4932116;28;20329;-80
2023/02/22 10:17:57;;;;;;;26.38;13.98;;;9.70;99.90;;;;;;4962502;28;20046;-79
2023/02/22 10:20:51;;;;;;;22.90;11.32;;;9.80;99.90;;;;;;4928113;28;20082;-80
2023/02/22 10:23:28;;;;;;;22.00;12.15;;;9.90;99.90;;;;;;4943247;28;20027;-80
2023/02/22 10:25:58;;;;;;;20.85;11.90;;;10.10;99.90;;;;;;4943667;28;20479;-81
2023/02/22 10:28:30;;;;;;;23.50;13.32;;;10.20;99.90;;;;;;4916780;29;20058;-81
2023/02/22 10:30:58;;;;;;;16.85;9.98;;;10.30;99.90;;;;;;4917933;28;20100;-80
2023/02/22 10:33:30;;;;;;;18.13;11.93;;;10.30;99.90;;;;;;4911085;28;20043;-81
2023/02/22 10:35:55;;;;;;;19.25;11.60;;;10.60;99.90;;;;;;4931469;28;20544;-81
2023/02/22 10:38:23;;;;;;;10.05;7.35;;;10.70;99.90;;;;;;4911313;28;20035;-81
2023/02/22 10:40:59;;;;;;;9.00;5.45;;;10.80;99.90;;;;;;4933539;28;20062;-82
2023/02/22 10:43:24;;;;;;;13.55;7.78;;;11.00;99.90;;;;;;4948303;28;20130;-82
2023/02/22 10:45:54;;;;;;;17.30;9.25;;;11.10;99.90;;;;;;4920723;28;20550;-81
2023/02/22 10:48:20;;;;;;;15.02;8.10;;;11.30;99.90;;;;;;4939237;28;20030;-81
2023/02/22 10:50:46;;;;;;;9.00;5.93;;;11.60;99.90;;;;;;4915357;28;20046;-80
2023/02/22 10:53:14;;;;;;;12.80;7.78;;;12.00;99.90;;;;;;4945509;28;20114;-81
2023/02/22 10:56:14;;;;;;;12.52;7.97;;;12.40;99.90;;;;;;4919888;28;20032;-81
2023/02/22 10:58:56;;;;;;;13.32;7.45;;;12.80;99.90;;;;;;4966790;28;20450;-81
2023/02/22 11:01:30;;;;;;;12.48;7.18;;;13.00;99.90;;;;;;4939242;28;20466;-82
2023/02/22 11:04:18;;;;;;;14.48;9.35;;;13.10;99.90;;;;;;4967985;28;20630;-82
2023/02/22 11:06:47;;;;;;;16.13;8.20;;;13.10;99.90;;;;;;4951691;28;20038;-82
2023/02/22 11:09:21;;;;;;;15.32;7.15;;;13.30;99.90;;;;;;4923287;28;20453;-82
2023/02/22 11:12:15;;;;;;;10.75;6.30;;;13.80;99.90;;;;;;4944710;28;20513;-82
2023/02/22 11:14:41;;;;;;;13.57;6.93;;;13.80;99.90;;;;;;4938781;28;20122;-82
2023/02/22 11:17:11;;;;;;;8.25;5.10;;;14.30;99.90;;;;;;4941572;28;20378;-82
2023/02/22 11:19:38;;;;;;;8.38;5.15;;;14.80;99.90;;;;;;4941703;28;20520;-82
2023/02/22 11:22:24;;;;;;;8.38;5.03;;;15.20;99.90;;;;;;4923735;28;20118;-82
2023/02/22 11:25:02;;;;;;;9.15;5.40;;;15.20;99.90;;;;;;4936254;28;20138;-83
2023/02/22 11:27:39;;;;;;;10.32;4.70;;;14.90;99.90;;;;;;4911568;28;20039;-82
2023/02/22 11:30:17;;;;;;;8.27;4.65;;;15.40;99.90;;;;;;4938991;28;20410;-83
2023/02/22 11:32:44;;;;;;;8.32;4.63;;;15.60;99.90;;;;;;4972912;28;20063;-80
2023/02/22 11:35:37;;;;;;;6.88;3.80;;;15.60;99.90;;;;;;4920282;28;20027;-83
2023/02/22 11:38:10;;;;;;;5.75;3.33;;;15.80;99.90;;;;;;4956157;28;20046;-80
2023/02/22 11:40:35;;;;;;;6.65;4.10;;;16.00;99.90;;;;;;4920793;28;20043;-83
2023/02/22 11:43:15;;;;;;;6.35;3.25;;;16.50;99.90;;;;;;4935888;28;20035;-82
2023/02/22 11:45:59;;;;;;;7.38;3.78;;;16.60;99.90;;;;;;4950021;28;20125;-82
2023/02/22 11:48:25;;;;;;;7.80;3.42;;;16.40;99.90;;;;;;4945991;28;20039;-81
2023/02/22 11:51:11;;;;;;;10.05;4.00;;;16.60;99.90;;;;;;4942008;28;20554;-82
2023/02/22 11:54:02;;;;;;;8.73;5.13;;;16.20;99.90;;;;;;4973033;28;20462;-83
2023/02/22 11:56:35;;;;;;;9.18;4.10;;;16.40;99.90;;;;;;4940994;28;20051;-82
2023/02/22 11:59:10;;;;;;;9.35;3.80;;;16.70;99.90;;;;;;4952301;28;20050;-80
2023/02/22 12:02:04;;;;;;;8.47;3.40;;;16.80;99.90;;;;;;4938208;28;20050;-83
2023/02/22 12:04:41;;;;;;;9.68;3.60;;;17.10;99.90;;;;;;4920416;28;20499;-81
2023/02/22 12:07:43;;;;;;;9.50;3.60;;;17.00;99.90;;;;;;4935329;28;20027;-82
2023/02/22 12:10:34;;;;;;;6.03;3.53;;;17.20;99.90;;;;;;4961051;28;20035;-81
2023/02/22 12:13:15;;;;;;;7.05;3.45;;;16.90;99.90;;;;;;4958802;28;20439;-81
2023/02/22 12:15:48;;;;;;;10.25;3.05;;;17.10;99.90;;;;;;4964486;28;20501;-81
2023/02/22 12:18:43;;;;;;;6.20;3.80;;;17.10;99.90;;;;;;4948675;28;20438;-82
2023/02/22 12:21:15;;;;;;;6.47;3.22;;;17.10;99.90;;;;;;4929290;28;20034;-82
2023/02/22 12:23:49;;;;;;;8.32;4.57;;;17.30;99.90;;;;;;4920200;28;20447;-81
2023/02/22 12:26:53;;;;;;;5.40;3.25;;;17.70;99.90;;;;;;4915248;29;20035;-82
2023/02/22 12:29:47;;;;;;;7.72;3.72;;;17.60;99.90;;;;;;4897601;29;20032;-81
2023/02/22 12:32:32;;;;;;;5.20;3.30;;;17.70;99.90;;;;;;4925422;28;20819;-82
2023/02/22 12:35:08;;;;;;;5.57;2.95;;;17.90;99.90;;;;;;4938311;28;20035;-82
2023/02/22 12:37:43;;;;;;;7.00;3.33;;;17.90;99.90;;;;;;4944976;28;20101;-81
2023/02/22 12:40:17;;;;;;;10.15;4.13;;;17.80;99.90;;;;;;4937976;28;20484;-81
2023/02/22 12:42:54;;;;;;;5.78;3.47;;;17.70;99.90;;;;;;4935973;28;20062;-82
2023/02/22 12:45:29;;;;;;;6.53;3.30;;;17.90;99.90;;;;;;4956924;28;20505;-82
2023/02/22 12:48:13;;;;;;;5.70;3.47;;;18.00;99.90;;;;;;4952629;28;20090;-82
2023/02/22 12:50:39;;;;;;;5.50;3.38;;;18.20;99.90;;;;;;4947462;28;20046;-82
2023/02/22 12:53:12;;;;;;;5.38;2.95;;;18.00;99.90;;;;;;4251444;28;10000622;-82
2023/02/22 12:56:05;;;;;;;5.22;3.28;;;18.10;99.90;;;;;;4963273;28;20045;-82
2023/02/22 12:58:41;;;;;;;3.22;2.28;;;18.20;99.90;;;;;;4933964;28;20051;-82
2023/02/22 13:01:28;;;;;;;6.22;3.13;;;17.90;99.90;;;;;;4924536;28;20038;-81
2023/02/22 13:03:54;;;;;;;5.50;3.33;;;18.10;99.90;;;;;;4915755;28;20081;-82
2023/02/22 13:06:26;;;;;;;6.20;3.25;;;18.20;99.90;;;;;;4932570;28;20039;-81
2023/02/22 13:09:05;;;;;;;8.38;4.32;;;18.30;99.90;;;;;;4931441;28;20039;-80
2023/02/22 13:11:32;;;;;;;9.88;4.05;;;18.30;99.90;;;;;;4941825;28;20046;-80
2023/02/22 13:14:20;;;;;;;9.80;4.80;;;18.40;99.90;;;;;;4936815;28;20057;-80
2023/02/22 13:17:27;;;;;;;11.48;4.90;;;18.40;99.90;;;;;;4952355;28;20399;-81
2023/02/22 13:20:05;;;;;;;9.07;4.45;;;18.30;99.90;;;;;;4877005;29;20032;-80
2023/02/22 13:23:11;;;;;;;4.72;3.60;;;18.20;99.90;;;;;;4932777;28;20051;-80
2023/02/22 13:25:56;;;;;;;8.70;4.25;;;18.40;99.90;;;;;;4931462;28;20030;-80
2023/02/22 13:28:28;;;;;;;6.88;4.28;;;18.40;99.90;;;;;;4898171;29;20035;-80
2023/02/22 13:31:17;;;;;;;7.32;5.03;;;18.40;99.90;;;;;;4926399;28;20035;-80
2023/02/22 13:34:17;;;;;;;6.45;4.18;;;18.30;99.90;;;;;;4937093;28;20053;-80
2023/02/22 13:37:20;;;;;;;7.35;4.07;;;18.10;99.90;;;;;;4933546;28;20039;-81
2023/02/22 13:40:12;;;;;;;9.00;4.93;;;18.40;99.90;;;;;;4919485;28;20069;-81
2023/02/22 13:42:47;;;;;;;7.00;3.70;;;18.10;99.90;;;;;;4940695;28;20038;-80
2023/02/22 13:45:26;;;;;;;10.40;4.88;;;18.20;99.90;;;;;;4968400;28;20036;-81
2023/02/22 13:47:58;;;;;;;7.85;3.78;;;18.10;99.90;;;;;;4948272;28;20781;-82
2023/02/22 13:50:29;;;;;;;12.38;5.35;;;18.20;99.90;;;;;;4945926;28;20074;-81
2023/02/22 13:52:54;;;;;;;11.77;4.53;;;18.20;99.90;;;;;;4955781;28;20669;-80
2023/02/22 13:55:26;;;;;;;8.70;4.88;;;18.20;99.90;;;;;;4935980;28;20035;-81
2023/02/22 13:57:54;;;;;;;8.88;5.20;;;18.20;99.90;;;;;;4931751;28;20439;-81
2023/02/22 14:00:21;;;;;;;9.02;4.32;;;18.20;99.90;;;;;;4911842;28;20027;-81
2023/02/22 14:03:12;;;;;;;6.78;4.13;;;18.00;99.90;;;;;;4942719;28;20035;-81
2023/02/22 14:05:43;;;;;;;12.10;5.40;;;18.10;99.90;;;;;;4965198;28;20100;-80
2023/02/22 14:08:18;;;;;;;9.10;5.05;;;18.00;99.90;;;;;;4965170;28;20035;-81
2023/02/22 14:10:50;;;;;;;6.67;3.90;;;18.00;99.90;;;;;;4966142;28;20047;-80
2023/02/22 14:13:18;;;;;;;7.00;4.30;;;18.10;99.90;;;;;;4949663;28;20290;-80
2023/02/22 14:15:58;;;;;;;6.93;3.55;;;17.90;99.90;;;;;;4948357;28;20090;-80
2023/02/22 14:18:34;;;;;;;6.70;4.00;;;17.80;99.90;;;;;;4946205;28;20583;-81
2023/02/22 14:21:13;;;;;;;7.57;3.83;;;17.80;99.90;;;;;;4925093;28;20170;-82
2023/02/22 14:23:45;;;;;;;7.68;4.50;;;17.90;99.90;;;;;;4953080;28;20449;-80
2023/02/22 14:26:13;;;;;;;8.07;4.18;;;17.80;99.90;;;;;;4948720;28;20494;-81
2023/02/22 14:28:49;;;;;;;8.32;4.25;;;17.70;99.90;;;;;;4912561;28;20077;-80
2023/02/22 14:31:19;;;;;;;9.68;4.30;;;17.60;99.90;;;;;;4935582;28;20037;-81
2023/02/22 14:34:01;;;;;;;9.15;4.00;;;17.60;99.90;;;;;;4933469;28;20917;-81
2023/02/22 14:36:33;;;;;;;9.85;4.05;;;17.60;99.90;;;;;;4935822;28;20042;-81
2023/02/22 14:39:13;;;;;;;5.07;3.55;;;17.50;99.90;;;;;;4938808;28;20441;-82
2023/02/22 14:41:45;;;;;;;9.38;4.05;;;17.60;99.90;;;;;;4924579;28;20031;-81
2023/02/22 14:44:20;;;;;;;7.93;4.80;;;17.50;99.90;;;;;;4901462;28;20035;-81
2023/02/22 14:46:50;;;;;;;8.02;3.72;;;17.50;99.90;;;;;;4921157;28;20043;-82
2023/02/22 14:49:21;;;;;;;10.60;4.85;;;17.40;99.90;;;;;;4939150;28;20502;-82
2023/02/22 14:51:54;;;;;;;8.30;3.22;;;17.40;99.90;;;;;;4901860;28;20398;-82
2023/02/22 14:54:42;;;;;;;10.13;4.38;;;17.40;99.90;;;;;;4949448;28;20054;-82
2023/02/22 14:57:14;;;;;;;6.53;4.03;;;17.40;99.90;;;;;;4936620;28;20101;-81
2023/02/22 15:00:35;;;;;;;9.80;5.20;;;17.30;99.90;;;;;;4891238;28;20069;-82
2023/02/22 15:03:02;;;;;;;7.53;5.10;;;17.40;99.90;;;;;;4920662;28;20494;-81
2023/02/22 15:05:41;;;;;;;13.05;6.32;;;17.30;99.90;;;;;;4924807;28;20040;-81
2023/02/22 15:08:07;;;;;;;6.63;4.85;;;17.20;99.90;;;;;;4902578;28;20463;-81
2023/02/22 15:10:44;;;;;;;12.15;6.50;;;17.10;99.90;;;;;;4932707;28;20031;-82
2023/02/22 15:13:26;;;;;;;12.60;5.95;;;17.10;99.90;;;;;;4969572;28;20391;-83
2023/02/22 15:16:09;;;;;;;17.75;6.07;;;17.00;99.90;;;;;;4933462;28;20507;-82
2023/02/22 15:18:53;;;;;;;8.90;5.82;;;16.90;99.90;;;;;;4931537;28;20083;-82
2023/02/22 15:21:26;;;;;;;12.95;6.15;;;16.80;99.90;;;;;;4938433;28;20038;-82
2023/02/22 15:23:57;;;;;;;7.65;4.82;;;16.70;99.90;;;;;;4924072;28;20102;-82
2023/02/22 15:26:33;;;;;;;8.07;5.40;;;16.70;99.90;;;;;;4865544;29;20125;-82
2023/02/22 15:29:23;;;;;;;8.02;5.40;;;16.70;99.90;;;;;;4909142;28;20043;-81
2023/02/22 15:31:49;;;;;;;8.35;5.38;;;16.60;99.90;;;;;;4866240;28;20558;-82
2023/02/22 15:37:26;;;;;;;11.77;5.78;;;16.50;99.90;;;;;;4850821;28;20050;-82
2023/02/22 15:39:58;;;;;;;8.25;5.13;;;16.50;99.90;;;;;;4879270;28;20031;-83
2023/02/22 15:42:29;;;;;;;7.75;4.93;;;16.50;99.90;;;;;;4884759;28;20039;-83
2023/02/22 15:45:11;;;;;;;7.53;5.43;;;16.40;99.90;;;;;;4865593;29;20028;-82
2023/02/22 15:47:40;;;;;;;14.52;8.80;;;16.40;99.90;;;;;;4897323;28;20038;-82
2023/02/22 15:50:32;;;;;;;10.60;5.75;;;16.30;99.90;;;;;;4861949;29;20516;-82
2023/02/22 15:53:24;;;;;;;10.05;6.40;;;16.20;99.90;;;;;;4881003;28;20063;-82
2023/02/22 15:56:06;;;;;;;11.32;7.60;;;16.20;99.90;;;;;;4938173;28;20027;-82
2023/02/22 15:58:37;;;;;;;9.52;6.43;;;16.10;99.90;;;;;;4898006;28;20074;-82
2023/02/22 16:01:19;;;;;;;12.85;5.45;;;16.00;99.90;;;;;;4875132;29;20122;-82
2023/02/22 16:03:49;;;;;;;11.50;6.20;;;15.90;99.90;;;;;;4899481;28;20388;-82
2023/02/22 16:06:29;;;;;;;10.00;6.00;;;15.90;99.90;;;;;;4885148;28;20036;-82
2023/02/22 16:09:00;;;;;;;11.00;6.53;;;15.70;99.90;;;;;;4908025;28;20566;-82
2023/02/22 16:11:30;;;;;;;10.82;6.70;;;15.70;99.90;;;;;;4896035;29;20138;-82
2023/02/22 16:14:25;;;;;;;9.68;6.35;;;15.60;99.90;;;;;;4898549;28;20046;-82
2023/02/22 16:17:13;;;;;;;10.93;6.68;;;15.50;99.90;;;;;;4914259;28;20038;-82
2023/02/22 16:19:49;;;;;;;14.35;7.85;;;15.40;99.90;;;;;;4918292;28;20444;-81
2023/02/22 16:22:27;;;;;;;10.68;6.85;;;15.30;99.90;;;;;;4879820;28;20039;-82
2023/02/22 16:25:16;;;;;;;9.75;6.40;;;15.30;99.90;;;;;;4904876;28;20053;-81
2023/02/22 16:27:46;;;;;;;11.85;6.88;;;15.20;99.90;;;;;;4921971;28;20035;-81
2023/02/22 16:30:20;;;;;;;15.43;6.65;;;15.10;99.90;;;;;;4872029;28;20043;-81
2023/02/22 16:32:56;;;;;;;10.05;7.47;;;15.00;99.90;;;;;;4913274;28;20035;-80
2023/02/22 16:35:50;;;;;;;;;;;;;;;;;;;;;
2023/02/22 16:38:20;;;;;;;16.98;9.18;;;14.90;99.90;;;;;;4912500;28;21283;-80
2023/02/22 16:41:14;;;;;;;;;;;;;;;;;;;;;
2023/02/22 16:44:06;;;;;;;10.27;7.43;;;14.70;99.90;;;;;;4919331;28;20174;-80
2023/02/22 16:46:31;;;;;;;12.65;9.82;;;14.60;99.90;;;;;;4919241;28;20026;-80
2023/02/22 16:49:05;;;;;;;13.98;8.63;;;14.60;99.90;;;;;;4908994;28;20111;-80
2023/02/22 16:51:42;;;;;;;11.27;7.35;;;14.50;99.90;;;;;;4911760;28;20066;-80
2023/02/22 16:54:10;;;;;;;9.23;6.88;;;14.40;99.90;;;;;;4920639;28;20467;-81
2023/02/22 16:56:36;;;;;;;12.57;8.55;;;14.30;99.90;;;;;;4914812;28;20041;-81
2023/02/22 16:59:04;;;;;;;13.57;8.40;;;14.30;99.90;;;;;;4907042;28;20042;-81
2023/02/22 17:01:32;;;;;;;10.63;6.95;;;14.20;99.90;;;;;;4941577;28;20108;-80
2023/02/22 17:03:59;;;;;;;12.27;7.50;;;14.20;99.90;;;;;;4906017;28;20294;-80
2023/02/22 17:06:25;;;;;;;13.27;9.85;;;14.10;99.90;;;;;;4905866;28;20046;-80
2023/02/22 17:08:51;;;;;;;13.63;9.15;;;14.10;99.90;;;;;;4930382;28;20399;-80
2023/02/22 17:11:17;;;;;;;10.23;7.82;;;14.00;99.90;;;;;;4939512;28;20534;-80
2023/02/22 17:13:44;;;;;;;14.60;7.93;;;14.00;99.90;;;;;;4925327;28;20038;-80
2023/02/22 17:16:13;;;;;;;16.45;8.35;;;14.00;99.90;;;;;;4908043;28;20122;-80
2023/02/22 17:18:39;;;;;;;13.43;7.18;;;13.90;99.90;;;;;;4922881;28;20490;-80
2023/02/22 17:21:05;;;;;;;13.68;8.18;;;13.80;99.90;;;;;;4947202;28;20035;-80
2023/02/22 17:23:30;;;;;;;14.00;8.32;;;13.80;99.90;;;;;;4931682;28;20038;-79
2023/02/22 17:25:58;;;;;;;11.55;8.30;;;13.80;99.90;;;;;;4904564;28;20042;-80
2023/02/22 17:28:23;;;;;;;16.17;9.80;;;13.70;99.90;;;;;;4907030;28;20050;-80
2023/02/22 17:30:52;;;;;;;7.15;4.40;;;13.60;99.90;;;;;;4933249;28;20038;-80
2023/02/22 17:33:25;;;;;;;13.82;9.40;;;13.50;99.90;;;;;;4904720;28;20031;-79
2023/02/22 17:36:00;;;;;;;9.07;5.97;;;13.40;99.90;;;;;;4912169;28;20372;-80
2023/02/22 17:38:29;;;;;;;13.82;7.25;;;13.40;99.90;;;;;;4937552;28;20095;-79
2023/02/22 17:40:54;;;;;;;18.58;11.10;;;13.30;99.90;;;;;;4894507;28;20031;-80
2023/02/22 17:43:20;;;;;;;11.25;7.88;;;13.30;99.90;;;;;;4923311;28;20038;-80
2023/02/22 17:45:47;;;;;;;14.38;9.15;;;13.20;99.90;;;;;;4932773;28;20166;-80
2023/02/22 17:48:13;;;;;;;14.52;9.38;;;13.10;99.90;;;;;;4917622;28;20491;-80
2023/02/22 17:50:39;;;;;;;15.90;11.05;;;13.00;99.90;;;;;;4904909;28;20035;-80
2023/02/22 17:53:05;;;;;;;12.35;9.45;;;13.00;99.90;;;;;;4898838;28;20556;-80
2023/02/22 17:55:33;;;;;;;15.27;10.00;;;13.00;99.90;;;;;;4903723;28;20050;-80
2023/02/22 17:57:58;;;;;;;14.30;9.82;;;12.90;99.90;;;;;;4933807;28;20641;-80
2023/02/22 18:00:34;;;;;;;14.38;9.65;;;12.90;99.90;;;;;;4918314;28;20114;-79
2023/02/22 18:03:10;;;;;;;17.05;12.00;;;12.80;99.90;;;;;;4915666;28;20057;-80
2023/02/22 18:05:39;;;;;;;;;;;12.80;99.90;;;;;;4934138;28;20035;-80
2023/02/22 18:08:06;;;;;;;15.77;9.65;;;12.80;99.90;;;;;;4931902;28;19954;-80
2023/02/22 18:10:32;;;;;;;15.60;11.40;;;12.70;99.90;;;;;;4927363;28;20070;-80
2023/02/22 18:13:00;;;;;;;16.65;12.23;;;12.60;99.90;;;;;;4932439;28;20522;-80
2023/02/22 18:15:27;;;;;;;22.17;12.93;;;12.60;99.90;;;;;;4916217;28;20031;-80
2023/02/22 18:17:53;;;;;;;15.95;11.70;;;12.60;99.90;;;;;;4918672;28;20061;-81
2023/02/22 18:20:29;;;;;;;14.52;10.30;;;12.60;99.90;;;;;;4911991;28;20505;-82
2023/02/22 18:22:58;;;;;;;21.98;14.20;;;12.60;99.90;;;;;;4905943;28;20458;-81
2023/02/22 18:25:28;;;;;;;23.77;14.02;;;12.40;99.90;;;;;;4900624;28;20043;-80